Tropical Cyclones
[Index]
Main Index Home Page Stock Weather Photos Extreme Storms Discussion Storm News and Storm Chasing Reports Tropical Cyclones / Hurricanes / Typhoons Weather Data and Links Wild Fires / Bushfires Weather Observation Techniques Weather Picture Catalogue Tornado Pictures and Reports Stock Video Footage and DVDs for sale
Season 1975-1976 Tropical Cyclone BETH Track Map
Season 1975-1976 Summaries: [BoM-AU] [JTWC-AU] [JTWC-SIO] [JTWC-SPAC] [JTWC-SH]
<<- Previous TC | BoM 1975-1976 Season | Next TC ->>

click for intensity scale information  Lat/long Grid: Show Hide

 Date Labels: Show Hide

Bureau of Meteorology Tropical Cyclone Data

Name: BETH
Number: 553 / 197576_09

13 Feb 1976 17:00 UTC to 22 Feb 1976 05:00 UTC

    date/time    lat    long    hPa   cat  kts
1976-02-13 17   16.5   149.9   1003                     
1976-02-13 23   16.0   150.3   1002                     
1976-02-14 05   15.9   150.0    999                     
1976-02-14 11   16.1   149.6   1001                     
1976-02-14 17   16.1   150.0   1000                     
1976-02-14 23   15.8   150.1    999                     
1976-02-15 05   15.5   149.9    997                     
1976-02-15 11   15.2   149.5    996                     
1976-02-15 17   15.0   149.1    994    1                
1976-02-15 23   14.6   148.5    994    1                
1976-02-16 05   14.0   148.3    992    1                
1976-02-16 11   13.7   148.7    990    1                
1976-02-16 17   14.0   149.3    988    1                
1976-02-16 23   14.3   150.0    986    1                
1976-02-17 02   14.6   150.5    984    2                
1976-02-17 05   14.8   151.3    982    2                
1976-02-17 11   15.0   153.0    978    2                
1976-02-17 17   15.5   155.0    974    2                
1976-02-17 23   16.1   156.9    972    2                
1976-02-18 05   16.7   158.8    972    2                
1976-02-18 11   17.4   160.0    972    2                
1976-02-18 17   18.4   160.0    976    2                
1976-02-18 23   19.2   159.7    979    2                
1976-02-19 05   19.7   159.5    981    2                
1976-02-19 11   20.3   159.4    983    2                
1976-02-19 14   20.8   158.9    984    2                
1976-02-19 17   21.6   158.7    985    2                
1976-02-19 23   23.1   157.6    987    1                
1976-02-20 05   23.2   156.7    989    1                
1976-02-20 11   23.3   155.9    991    1                
1976-02-20 17   23.5   155.0    992    1                
1976-02-20 23   23.7   154.3    992    1                
1976-02-21 05   23.8   153.8    993    1                
1976-02-21 11   23.9   153.3    994    1                
1976-02-21 17   24.2   152.9    994    1                
1976-02-21 20   24.5   152.6    994    1                
1976-02-21 23   24.8   152.2    996                     
1976-02-22 05   24.9   151.3   1004                     
Winds are 10-min average.

Tropical cyclone tracks developed by Michael Bath using data from the Bureau of Meteorology and Google Maps.


[Australian Severe Weather index] [Copyright Notice] [Email Contacts] [Search This Site] [Privacy Policy]
Document: tropical_cyclone_beth.htm Updated: 30 May 2013